createdAt,value
2017-06-05T00:00:02.449Z,41.61
2017-06-05T00:01:12.351Z,41.61
2017-06-05T00:02:22.249Z,41.52
2017-06-05T00:03:32.481Z,41.71
2017-06-05T00:04:42.080Z,41.81
2017-06-05T00:05:51.680Z,41.81
2017-06-05T00:07:01.932Z,41.71
2017-06-05T00:08:11.537Z,41.81
2017-06-05T00:09:21.140Z,41.81
2017-06-05T00:10:30.735Z,41.91
2017-06-05T00:11:41.101Z,41.91
2017-06-05T00:12:51.005Z,42
2017-06-05T00:14:00.296Z,42
2017-06-05T00:15:10.192Z,41.91
2017-06-05T00:16:20.091Z,41.61
2017-06-05T00:17:29.687Z,41.61
2017-06-05T00:18:38.673Z,41.33
2017-06-05T00:19:48.592Z,41.61
2017-06-05T00:20:58.806Z,41.71
2017-06-05T00:22:08.407Z,41.23
2017-06-05T00:23:17.394Z,41.52
2017-06-05T00:24:27.300Z,41.33
2017-06-05T00:25:36.592Z,41.52
2017-06-05T00:26:46.515Z,41.33
2017-06-05T00:27:55.822Z,41.42
2017-06-05T00:29:05.576Z,41.23
2017-06-05T00:30:15.176Z,41.33
2017-06-05T00:31:25.395Z,41.33
2017-06-05T00:32:35.297Z,41.23
2017-06-05T00:33:44.898Z,41.03
2017-06-05T00:34:54.953Z,41.23
2017-06-05T00:36:05.176Z,41.23
2017-06-05T00:37:14.832Z,41.03
2017-06-05T00:38:25.057Z,41.03
2017-06-05T00:39:35.273Z,40.84
2017-06-05T00:40:45.190Z,40.84
2017-06-05T00:41:54.802Z,40.84
2017-06-05T00:43:04.403Z,41.03
2017-06-05T00:44:13.996Z,41.03
2017-06-05T00:45:23.594Z,41.13
2017-06-05T00:46:33.802Z,41.33
2017-06-05T00:47:44.005Z,41.3
2017-06-05T00:48:53.927Z,41.4
2017-06-05T00:50:03.235Z,41.3
2017-06-05T00:51:13.154Z,41.5
2017-06-05T00:52:22.907Z,41.3
2017-06-05T00:53:32.520Z,41.3
2017-06-05T00:54:41.841Z,41.2
2017-06-05T00:55:51.137Z,41.4
2017-06-05T00:57:00.439Z,41.4
2017-06-05T00:58:10.807Z,41.3
2017-06-05T00:59:21.024Z,41.3
2017-06-05T01:00:30.658Z,41.3
2017-06-05T01:01:40.869Z,41.3
2017-06-05T01:02:50.772Z,41.4
2017-06-05T01:04:00.713Z,41.3
2017-06-05T01:05:10.326Z,41.2
2017-06-05T01:06:19.315Z,41.3
2017-06-05T01:07:29.223Z,41.2
2017-06-05T01:08:39.130Z,41.3
2017-06-05T01:09:49.511Z,41.3
2017-06-05T01:10:59.721Z,41.4
2017-06-05T01:12:09.315Z,41.3
2017-06-05T01:13:18.916Z,41.3
2017-06-05T01:14:28.826Z,41.5
2017-06-05T01:15:38.568Z,41.3
2017-06-05T01:16:48.773Z,41.4
2017-06-05T01:17:58.999Z,41.3
2017-06-05T01:19:08.590Z,41.2
2017-06-05T01:20:18.208Z,41.5
2017-06-05T01:21:27.647Z,41.5
2017-06-05T01:22:37.556Z,41.4
2017-06-05T01:23:47.470Z,41.3
2017-06-05T01:24:57.700Z,41.3
2017-06-05T01:26:07.905Z,41.2
2017-06-05T01:27:18.164Z,41.2
2017-06-05T01:28:27.160Z,41.2
2017-06-05T01:29:37.083Z,41.3
2017-06-05T01:30:47.289Z,41.4
2017-06-05T01:31:57.208Z,41.4
2017-06-05T01:33:06.519Z,41.38
2017-06-05T01:34:16.721Z,41.2
2017-06-05T01:35:26.331Z,41.19
2017-06-05T01:36:36.226Z,41.28
2017-06-05T01:37:46.137Z,41.19
2017-06-05T01:38:55.886Z,41.09
2017-06-05T01:40:05.516Z,41.09
2017-06-05T01:41:15.747Z,40.9
2017-06-05T01:42:25.649Z,41.19
2017-06-05T01:43:35.555Z,40.9
2017-06-05T01:44:45.159Z,41.02
2017-06-05T01:45:55.371Z,40.92
2017-06-05T01:47:05.273Z,40.92
2017-06-05T01:48:15.193Z,41.2
2017-06-05T01:49:24.179Z,40.92
2017-06-05T01:50:33.810Z,41.02
2017-06-05T01:51:43.709Z,40.63
2017-06-05T01:52:53.620Z,40.82
2017-06-05T01:54:03.831Z,40.72
2017-06-05T01:55:13.736Z,40.82
2017-06-05T01:56:23.331Z,40.92
2017-06-05T01:57:33.543Z,40.72
2017-06-05T01:58:43.451Z,40.92
2017-06-05T01:59:53.373Z,40.82
2017-06-05T02:01:03.280Z,40.72
2017-06-05T02:02:13.182Z,40.53
2017-06-05T02:03:23.103Z,40.63
2017-06-05T02:04:33.668Z,40.63
2017-06-05T02:05:43.573Z,40.72
2017-06-05T02:06:53.478Z,40.63
2017-06-05T02:08:03.077Z,40.53
2017-06-05T02:09:12.973Z,40.63
2017-06-05T02:10:22.878Z,40.53
2017-06-05T02:11:32.466Z,40.72
2017-06-05T02:12:42.074Z,40.72
2017-06-05T02:13:51.971Z,40.82
2017-06-05T02:15:01.580Z,40.92
2017-06-05T02:16:11.492Z,40.72
2017-06-05T02:17:21.125Z,40.8
2017-06-05T02:18:31.029Z,40.9
2017-06-05T02:19:40.992Z,40.9
2017-06-05T02:20:50.900Z,40.8
2017-06-05T02:22:01.120Z,40.8
2017-06-05T02:23:10.414Z,40.8
2017-06-05T02:24:20.017Z,40.99
2017-06-05T02:25:29.927Z,40.9
2017-06-05T02:26:40.166Z,40.99
2017-06-05T02:27:50.383Z,40.9
2017-06-05T02:29:00.298Z,41.09
2017-06-05T02:30:10.197Z,40.99
2017-06-05T02:31:20.154Z,41.09
2017-06-05T02:32:30.060Z,41.19
2017-06-05T02:33:39.367Z,40.99
2017-06-05T02:34:49.286Z,41.09
2017-06-05T02:35:59.503Z,41.09
2017-06-05T02:37:09.425Z,41.09
2017-06-05T02:38:19.329Z,41.09
2017-06-05T02:39:29.248Z,41.19
2017-06-05T02:40:39.157Z,41.28
2017-06-05T02:41:48.782Z,41.17
2017-06-05T02:42:58.082Z,41.28
2017-06-05T02:44:07.981Z,41.38
2017-06-05T02:45:17.895Z,41.36
2017-06-05T02:46:27.802Z,41.27
2017-06-05T02:47:38.035Z,41.36
2017-06-05T02:48:47.649Z,41.27
2017-06-05T02:49:57.559Z,41.19
2017-06-05T02:51:07.184Z,41.36
2017-06-05T02:52:16.792Z,41.17
2017-06-05T02:53:26.999Z,41.36
2017-06-05T02:54:37.053Z,41.17
2017-06-05T02:55:46.342Z,41.17
2017-06-05T02:56:55.945Z,41.17
2017-06-05T02:58:05.852Z,41.17
2017-06-05T02:59:15.775Z,41.27
2017-06-05T03:00:25.784Z,41.27
2017-06-05T03:01:35.390Z,41.17
2017-06-05T03:02:45.609Z,41.36
2017-06-05T03:03:55.828Z,41.36
2017-06-05T03:05:05.724Z,41.46
2017-06-05T03:06:15.328Z,41.36
2017-06-05T03:07:24.636Z,41.27
2017-06-05T03:08:34.845Z,41.27
2017-06-05T03:09:44.136Z,41.36
2017-06-05T03:10:53.736Z,41.46
2017-06-05T03:12:03.942Z,41.55
2017-06-05T03:13:14.148Z,41.17
2017-06-05T03:14:24.073Z,41.55
2017-06-05T03:15:33.976Z,41.36
2017-06-05T03:16:44.191Z,41.46
2017-06-05T03:17:54.238Z,41.46
2017-06-05T03:19:04.507Z,41.36
2017-06-05T03:20:14.414Z,41.46
2017-06-05T03:21:24.631Z,41.46
2017-06-05T03:22:34.921Z,42.13
2017-06-05T03:23:45.201Z,41.65
2017-06-05T03:24:54.494Z,41.55
2017-06-05T03:26:04.406Z,41.55
2017-06-05T03:27:14.617Z,41.55
2017-06-05T03:28:24.515Z,41.46
2017-06-05T03:29:34.475Z,41.27
2017-06-05T03:30:44.715Z,41.55
2017-06-05T03:31:54.922Z,41.36
2017-06-05T03:33:05.134Z,41.65
2017-06-05T03:34:14.421Z,41.84
2017-06-05T03:35:24.791Z,41.65
2017-06-05T03:36:35.001Z,41.75
2017-06-05T03:37:44.605Z,41.75
2017-06-05T03:38:54.523Z,41.65
2017-06-05T03:40:04.138Z,41.65
2017-06-05T03:41:14.196Z,41.65
2017-06-05T03:42:23.787Z,41.63
2017-06-05T03:43:33.693Z,41.75
2017-06-05T03:44:43.606Z,41.63
2017-06-05T03:45:53.199Z,41.65
2017-06-05T03:47:03.197Z,41.55
2017-06-05T03:48:13.098Z,41.75
2017-06-05T03:49:23.304Z,41.75
2017-06-05T03:50:32.911Z,41.65
2017-06-05T03:51:42.200Z,41.75
2017-06-05T03:52:52.510Z,41.84
2017-06-05T03:54:02.715Z,41.65
2017-06-05T03:55:12.923Z,41.53
2017-06-05T03:56:22.820Z,41.46
2017-06-05T03:57:32.718Z,41.63
2017-06-05T03:58:42.464Z,41.63
2017-06-05T03:59:52.066Z,41.63
2017-06-05T04:01:02.271Z,41.72
2017-06-05T04:02:12.484Z,41.84
2017-06-05T04:03:22.408Z,41.84
2017-06-05T04:04:32.788Z,41.75
2017-06-05T04:05:42.095Z,41.75
2017-06-05T04:06:52.310Z,41.65
2017-06-05T04:08:02.219Z,41.63
2017-06-05T04:09:12.126Z,41.55
2017-06-05T04:10:22.177Z,41.65
2017-06-05T04:11:32.081Z,41.65
2017-06-05T04:12:42.285Z,41.72
2017-06-05T04:13:51.883Z,41.55
2017-06-05T04:15:01.483Z,41.72
2017-06-05T04:16:10.782Z,41.65
2017-06-05T04:17:20.383Z,41.63
2017-06-05T04:18:30.599Z,41.92
2017-06-05T04:19:40.201Z,41.92
2017-06-05T04:20:49.510Z,41.63
2017-06-05T04:21:59.413Z,41.82
2017-06-05T04:23:09.035Z,41.63
2017-06-05T04:24:19.245Z,41.72
2017-06-05T04:25:29.454Z,41.72
2017-06-05T04:26:39.656Z,41.63
2017-06-05T04:27:49.561Z,41.92
2017-06-05T04:28:59.776Z,41.72
2017-06-05T04:30:09.665Z,41.82
2017-06-05T04:31:19.882Z,41.72
2017-06-05T04:32:29.780Z,41.82
2017-06-05T04:33:39.800Z,41.72
2017-06-05T04:34:49.422Z,41.82
2017-06-05T04:35:59.638Z,41.63
2017-06-05T04:37:09.538Z,41.63
2017-06-05T04:38:19.448Z,41.82
2017-06-05T04:39:29.208Z,41.82
2017-06-05T04:40:39.103Z,41.53
2017-06-05T04:41:49.014Z,41.63
2017-06-05T04:42:58.910Z,41.53
2017-06-05T04:44:08.194Z,41.65
2017-06-05T04:45:18.145Z,41.63
2017-06-05T04:46:28.031Z,41.65
2017-06-05T04:47:37.658Z,41.84
2017-06-05T04:48:47.251Z,41.75
2017-06-05T04:49:57.456Z,41.94
2017-06-05T04:51:07.407Z,41.75
2017-06-05T04:52:17.607Z,41.55
2017-06-05T04:53:27.517Z,41.36
2017-06-05T04:54:37.429Z,41.27
2017-06-05T04:55:47.338Z,41.17
2017-06-05T04:56:57.543Z,41.27
2017-06-05T04:58:07.447Z,41.27
2017-06-05T04:59:17.345Z,41.27
2017-06-05T05:00:26.960Z,41.07
2017-06-05T05:01:37.173Z,40.97
2017-06-05T05:02:47.469Z,41.17
2017-06-05T05:03:57.676Z,41.07
2017-06-05T05:05:06.973Z,40.88
2017-06-05T05:06:17.186Z,40.88
2017-06-05T05:07:27.084Z,40.97
2017-06-05T05:08:37.140Z,40.88
2017-06-05T05:09:46.443Z,40.97
2017-06-05T05:10:56.715Z,40.97
2017-06-05T05:12:06.316Z,40.97
2017-06-05T05:13:15.908Z,40.88
2017-06-05T05:14:25.833Z,40.88
2017-06-05T05:15:35.442Z,40.59
2017-06-05T05:16:45.372Z,40.7
2017-06-05T05:17:54.661Z,40.69
2017-06-05T05:19:04.255Z,40.51
2017-06-05T05:20:14.257Z,40.7
2017-06-05T05:21:24.475Z,40.61
2017-06-05T05:22:34.388Z,40.51
2017-06-05T05:23:44.600Z,40.51
2017-06-05T05:24:54.507Z,40.51
2017-06-05T05:26:03.803Z,40.51
2017-06-05T05:27:13.101Z,40.61
2017-06-05T05:28:23.353Z,40.61
2017-06-05T05:29:33.674Z,40.61
2017-06-05T05:30:43.887Z,40.61
2017-06-05T05:31:53.795Z,40.51
2017-06-05T05:33:03.399Z,40.61
2017-06-05T05:34:13.006Z,40.51
2017-06-05T05:35:23.221Z,40.51
2017-06-05T05:36:32.835Z,40.51
2017-06-05T05:37:42.440Z,40.8
2017-06-05T05:38:52.365Z,40.63
2017-06-05T05:40:02.588Z,40.8
2017-06-05T05:41:12.503Z,40.32
2017-06-05T05:42:22.748Z,40.22
2017-06-05T05:43:33.309Z,40.32
2017-06-05T05:44:43.218Z,40.34
2017-06-05T05:45:52.824Z,40.24
2017-06-05T05:47:02.106Z,40.22
2017-06-05T05:48:12.002Z,40.34
2017-06-05T05:49:22.058Z,40.42
2017-06-05T05:50:32.272Z,40.24
2017-06-05T05:51:41.548Z,40.44
2017-06-05T05:52:51.451Z,40.34
2017-06-05T05:54:01.049Z,40.34
2017-06-05T05:55:11.058Z,40.53
2017-06-05T05:56:20.969Z,40.63
2017-06-05T05:57:31.174Z,39.95
2017-06-05T05:58:41.422Z,39.95
2017-06-05T05:59:51.334Z,39.76
2017-06-05T06:01:01.558Z,39.76
2017-06-05T06:02:11.160Z,39.57
2017-06-05T06:03:21.734Z,39.59
2017-06-05T06:04:31.646Z,39.49
2017-06-05T06:05:41.246Z,39.2
2017-06-05T06:06:50.896Z,38.91
2017-06-05T06:08:00.811Z,38.91
2017-06-05T06:09:10.102Z,38.91
2017-06-05T06:10:19.708Z,39.29
2017-06-05T06:11:29.604Z,39.39
2017-06-05T06:12:38.957Z,39.49
2017-06-05T06:13:48.926Z,39.32
2017-06-05T06:14:58.532Z,38.91
2017-06-05T06:16:08.686Z,38.74
2017-06-05T06:17:18.909Z,38.64
2017-06-05T06:18:28.247Z,38.74
2017-06-05T06:19:38.877Z,38.83
2017-06-05T06:20:48.810Z,38.74
2017-06-05T06:21:58.756Z,38.64
2017-06-05T06:23:08.716Z,38.54
2017-06-05T06:24:19.110Z,38.74
2017-06-05T06:25:29.049Z,38.54
2017-06-05T06:26:38.807Z,38.64
2017-06-05T06:27:49.026Z,38.35
2017-06-05T06:28:59.253Z,38.35
2017-06-05T06:30:08.891Z,38.25
2017-06-05T06:31:18.205Z,38.64
2017-06-05T06:32:28.114Z,38.45
2017-06-05T06:33:38.333Z,38.74
2017-06-05T06:34:48.243Z,38.64
2017-06-05T06:35:58.190Z,38.37
2017-06-05T06:37:08.095Z,38.37
2017-06-05T06:38:18.303Z,38.46
2017-06-05T06:39:28.247Z,38.46
2017-06-05T06:40:37.852Z,38.45
2017-06-05T06:41:47.907Z,38.56
2017-06-05T06:42:58.253Z,38.45
2017-06-05T06:44:08.473Z,38.37
2017-06-05T06:45:18.393Z,38.46
2017-06-05T06:46:28.004Z,38.66
2017-06-05T06:47:37.691Z,38.28
2017-06-05T06:48:47.596Z,38.18
2017-06-05T06:49:57.508Z,38.46
2017-06-05T06:51:07.430Z,38.46
2017-06-05T06:52:17.041Z,38.37
2017-06-05T06:53:27.064Z,38.28
2017-06-05T06:54:36.672Z,38.37
2017-06-05T06:55:46.881Z,38.37
2017-06-05T06:56:56.784Z,38.56
2017-06-05T06:58:07.016Z,38.18
2017-06-05T06:59:16.713Z,38
2017-06-05T07:00:26.616Z,37.71
2017-06-05T07:01:36.518Z,38
2017-06-05T07:02:46.423Z,37.82
2017-06-05T07:03:56.011Z,37.73
2017-06-05T07:05:05.762Z,37.44
2017-06-05T07:06:15.681Z,37.05
2017-06-05T07:07:24.965Z,37.05
2017-06-05T07:08:34.869Z,36.98
2017-06-05T07:09:45.075Z,36.58
2017-06-05T07:10:54.985Z,36.4
2017-06-05T07:12:04.890Z,36.22
2017-06-05T07:13:14.487Z,35.54
2017-06-05T07:14:24.385Z,35.25
2017-06-05T07:15:34.299Z,34.88
2017-06-05T07:16:43.922Z,34.51
2017-06-05T07:17:53.896Z,34.02
2017-06-05T07:19:03.804Z,34.43
2017-06-05T07:20:13.403Z,33.38
2017-06-05T07:21:23.306Z,33.76
2017-06-05T07:22:33.545Z,33.57
2017-06-05T07:23:42.847Z,33.39
2017-06-05T07:24:53.084Z,33.11
2017-06-05T07:26:03.287Z,32.92
2017-06-05T07:27:12.889Z,33.31
2017-06-05T07:28:23.254Z,32.82
2017-06-05T07:29:33.475Z,32.92
2017-06-05T07:30:43.099Z,32.64
2017-06-05T07:31:52.717Z,32.54
2017-06-05T07:33:02.648Z,32.55
2017-06-05T07:34:12.713Z,32.45
2017-06-05T07:35:22.628Z,32.26
2017-06-05T07:36:32.840Z,32.17
2017-06-05T07:37:42.464Z,31.79
2017-06-05T07:38:52.085Z,31.79
2017-06-05T07:40:02.095Z,31.71
2017-06-05T07:41:12.330Z,31.61
2017-06-05T07:42:21.642Z,31.51
2017-06-05T07:43:31.256Z,31.13
2017-06-05T07:44:41.482Z,30.75
2017-06-05T07:45:51.902Z,30.67
2017-06-05T07:47:01.834Z,30.47
2017-06-05T07:48:12.057Z,30
2017-06-05T07:49:21.991Z,30.1
2017-06-05T07:50:31.605Z,30.1
2017-06-05T07:51:41.634Z,30.19
2017-06-05T07:52:51.551Z,30.02
2017-06-05T07:54:01.777Z,30.02
2017-06-05T07:55:11.082Z,29.14
2017-06-05T07:56:20.411Z,29.35
2017-06-05T07:57:30.627Z,28.78
2017-06-05T07:58:40.858Z,28.78
2017-06-05T07:59:50.499Z,28.79
2017-06-05T08:01:00.446Z,28.11
2017-06-05T08:02:10.356Z,28.13
2017-06-05T08:03:20.620Z,28.32
2017-06-05T08:04:30.528Z,28.13
2017-06-05T08:05:40.742Z,28.22
2017-06-05T08:06:50.961Z,28.14
2017-06-05T08:08:01.184Z,28.14
2017-06-05T08:09:11.122Z,28.23
2017-06-05T08:10:21.057Z,28.23
2017-06-05T08:11:31.292Z,28.14
2017-06-05T08:12:40.897Z,28.23
2017-06-05T08:13:50.805Z,28.14
2017-06-05T08:15:00.427Z,28.25
2017-06-05T08:16:10.058Z,28.33
2017-06-05T08:17:20.303Z,28.15
2017-06-05T08:18:29.926Z,28.64
2017-06-05T08:19:39.922Z,28.92
2017-06-05T08:20:50.700Z,29.02
2017-06-05T08:21:59.998Z,29.31
2017-06-05T08:23:10.102Z,29.3
2017-06-05T08:24:19.439Z,29.2
2017-06-05T08:25:29.468Z,29.79
2017-06-05T08:26:39.542Z,30.06
2017-06-05T08:27:49.487Z,30.16
2017-06-05T08:28:59.728Z,30.06
2017-06-05T08:30:09.982Z,30.55
2017-06-05T08:31:20.203Z,30.54
2017-06-05T08:32:30.202Z,30.73
2017-06-05T08:33:40.173Z,30.73
2017-06-05T08:34:50.107Z,30.73
2017-06-05T08:36:00.059Z,30.54
2017-06-05T08:37:09.994Z,30.54
2017-06-05T08:38:20.049Z,30.45
2017-06-05T08:39:30.270Z,30.45
2017-06-05T08:40:41.413Z,30.35
2017-06-05T08:41:54.395Z,30.93
2017-06-05T08:43:07.689Z,31.22
2017-06-05T08:44:19.978Z,31.51
2017-06-05T08:45:29.918Z,31.6
2017-06-05T08:46:39.860Z,31.88
2017-06-05T08:47:50.337Z,32.08
2017-06-05T08:48:59.977Z,32.16
2017-06-05T08:50:09.333Z,32.45
2017-06-05T08:51:19.290Z,32.84
2017-06-05T08:52:28.948Z,32.94
2017-06-05T08:53:38.890Z,33.12
2017-06-05T08:54:48.828Z,33.61
2017-06-05T08:55:58.765Z,33.7
2017-06-05T08:57:09.012Z,33.78
2017-06-05T08:58:19.234Z,33.88
2017-06-05T08:59:29.189Z,34.08
2017-06-05T09:00:38.566Z,34.37
2017-06-05T09:01:49.170Z,34.55
2017-06-05T09:02:59.387Z,34.45
2017-06-05T09:04:09.634Z,34.55
2017-06-05T09:05:19.262Z,34.64
2017-06-05T09:06:29.526Z,34.82
2017-06-05T09:07:39.318Z,35.5
2017-06-05T09:08:49.274Z,35.31
2017-06-05T09:09:59.222Z,35.41
2017-06-05T09:11:09.170Z,35.58
2017-06-05T09:12:18.797Z,35.68
2017-06-05T09:13:28.846Z,35.78
2017-06-05T09:14:38.459Z,35.78
2017-06-05T09:15:48.151Z,36.16
2017-06-05T09:16:57.833Z,36.34
2017-06-05T09:18:07.773Z,36.44
2017-06-05T09:19:17.722Z,36.63
2017-06-05T09:20:27.726Z,36.63
2017-06-05T09:21:37.342Z,37.02
2017-06-05T09:22:47.600Z,36.91
2017-06-05T09:23:57.255Z,36.91
2017-06-05T09:25:07.641Z,36.91
2017-06-05T09:26:17.268Z,37.1
2017-06-05T09:27:27.529Z,37.3
2017-06-05T09:28:37.475Z,37.1
2017-06-05T09:29:47.446Z,37.39
2017-06-05T09:30:57.672Z,37.3
2017-06-05T09:32:07.905Z,37.3
2017-06-05T09:33:17.840Z,37.49
2017-06-05T09:34:27.748Z,37.76
2017-06-05T09:35:37.687Z,37.86
2017-06-05T09:36:47.297Z,37.96
2017-06-05T09:37:56.894Z,37.94
2017-06-05T09:39:06.500Z,38.32
2017-06-05T09:40:16.411Z,38.62
2017-06-05T09:41:26.045Z,38.52
2017-06-05T09:42:35.965Z,38.5
2017-06-05T09:43:46.196Z,38.7
2017-06-05T09:44:55.798Z,38.79
2017-06-05T09:46:06.002Z,38.89
2017-06-05T09:47:15.600Z,38.96
2017-06-05T09:48:25.551Z,39.45
2017-06-05T09:49:35.142Z,39.36
2017-06-05T09:50:45.065Z,39.26
2017-06-05T09:51:54.989Z,39.84
2017-06-05T09:53:04.592Z,39.65
2017-06-05T09:54:14.498Z,39.74
2017-06-05T09:55:24.148Z,39.53
2017-06-05T09:56:34.098Z,39.43
2017-06-05T09:57:43.731Z,39.62
2017-06-05T09:58:53.663Z,39.82
2017-06-05T10:00:03.476Z,39.62
2017-06-05T10:01:13.703Z,39.43
2017-06-05T10:02:23.325Z,39.53
2017-06-05T10:03:33.552Z,39.43
2017-06-05T10:04:43.482Z,39.34
2017-06-05T10:05:53.407Z,39.72
2017-06-05T10:07:03.326Z,39.34
2017-06-05T10:08:13.547Z,39.43
2017-06-05T10:09:23.483Z,39.62
2017-06-05T10:10:33.403Z,39.72
2017-06-05T10:11:43.437Z,39.61
2017-06-05T10:12:53.672Z,39.61
2017-06-05T10:14:03.903Z,39.72
2017-06-05T10:15:13.861Z,39.72
2017-06-05T10:16:23.760Z,39.7
2017-06-05T10:17:34.019Z,39.7
2017-06-05T10:18:43.619Z,39.7
2017-06-05T10:19:52.930Z,39.7
2017-06-05T10:21:02.865Z,39.51
2017-06-05T10:22:12.517Z,39.41
2017-06-05T10:23:22.598Z,39.61
2017-06-05T10:24:32.522Z,39.61
2017-06-05T10:25:42.127Z,39.61
2017-06-05T10:26:52.038Z,39.51
2017-06-05T10:28:01.655Z,39.41
2017-06-05T10:29:11.128Z,39.41
2017-06-05T10:30:21.041Z,39.69
2017-06-05T10:31:30.946Z,39.88
2017-06-05T10:32:40.853Z,39.69
2017-06-05T10:33:51.069Z,39.88
2017-06-05T10:35:01.119Z,39.97
2017-06-05T10:36:10.725Z,39.97
2017-06-05T10:37:20.958Z,40.75
2017-06-05T10:38:30.570Z,40.44
2017-06-05T10:39:40.173Z,40.53
2017-06-05T10:40:50.178Z,40.53
2017-06-05T10:42:00.387Z,40.53
2017-06-05T10:43:09.990Z,40.53
2017-06-05T10:44:20.201Z,40.44
2017-06-05T10:45:29.794Z,40.73
2017-06-05T10:46:40.322Z,40.25
2017-06-05T10:47:50.259Z,40.05
2017-06-05T10:48:59.859Z,39.86
2017-06-05T10:50:09.536Z,39.86
2017-06-05T10:51:19.735Z,40.05
2017-06-05T10:52:29.745Z,40.05
2017-06-05T10:53:39.065Z,39.95
2017-06-05T10:54:49.283Z,39.47
2017-06-05T10:55:59.498Z,39.67
2017-06-05T10:57:09.398Z,39.57
2017-06-05T10:58:19.845Z,38.99
2017-06-05T10:59:29.456Z,39.09
2017-06-05T11:00:39.360Z,39.47
2017-06-05T11:01:49.612Z,39.57
2017-06-05T11:02:59.523Z,39.57
2017-06-05T11:04:09.117Z,39.57
2017-06-05T11:05:18.413Z,39.47
2017-06-05T11:06:28.627Z,39.18
2017-06-05T11:07:38.838Z,39.37
2017-06-05T11:08:48.441Z,39.09
2017-06-05T11:09:59.011Z,38.7
2017-06-05T11:11:08.911Z,38.79
2017-06-05T11:12:19.165Z,38.6
2017-06-05T11:13:28.486Z,38.7
2017-06-05T11:14:38.705Z,38.7
2017-06-05T11:15:48.918Z,38.79
2017-06-05T11:16:58.843Z,38.6
2017-06-05T11:18:08.453Z,38.7
2017-06-05T11:19:18.052Z,38.7
2017-06-05T11:20:27.656Z,38.6
2017-06-05T11:21:37.613Z,38.6
2017-06-05T11:22:47.221Z,38.7
2017-06-05T11:23:57.171Z,38.5
2017-06-05T11:25:07.063Z,38.6
2017-06-05T11:26:16.968Z,38.31
2017-06-05T11:27:26.586Z,38.31
2017-06-05T11:28:36.815Z,38.31
2017-06-05T11:29:47.029Z,38.41
2017-06-05T11:30:56.946Z,38.41
2017-06-05T11:32:06.873Z,38.7
2017-06-05T11:33:16.942Z,38.21
2017-06-05T11:34:26.855Z,38.12
2017-06-05T11:35:36.770Z,37.92
2017-06-05T11:36:46.714Z,37.73
2017-06-05T11:37:56.920Z,37.82
2017-06-05T11:39:06.843Z,37.63
2017-06-05T11:40:16.763Z,38.12
2017-06-05T11:41:26.685Z,38.02
2017-06-05T11:42:36.969Z,37.92
2017-06-05T11:43:47.182Z,37.82
2017-06-05T11:44:56.585Z,38.02
2017-06-05T11:46:06.510Z,38.02
2017-06-05T11:47:16.418Z,37.82
2017-06-05T11:48:26.329Z,37.92
2017-06-05T11:49:36.535Z,37.73
2017-06-05T11:50:46.444Z,38.02
2017-06-05T11:51:56.657Z,37.73
2017-06-05T11:53:06.562Z,38.12
2017-06-05T11:54:16.165Z,37.73
2017-06-05T11:55:25.451Z,37.92
2017-06-05T11:56:35.189Z,37.82
2017-06-05T11:57:44.804Z,37.73
2017-06-05T11:58:54.694Z,37.92
2017-06-05T12:00:03.984Z,37.92
2017-06-05T12:01:13.578Z,37.82
2017-06-05T12:02:23.835Z,37.82
2017-06-05T12:03:33.440Z,37.73
2017-06-05T12:04:43.361Z,37.63
2017-06-05T12:05:53.301Z,37.44
2017-06-05T12:07:03.522Z,37.44
2017-06-05T12:08:13.436Z,37.44
2017-06-05T12:09:22.746Z,37.34
2017-06-05T12:10:32.965Z,37.44
2017-06-05T12:11:42.867Z,37.34
2017-06-05T12:12:52.490Z,37.44
2017-06-05T12:14:02.538Z,37.34
2017-06-05T12:15:12.135Z,37.34
2017-06-05T12:16:21.182Z,37.34
2017-06-05T12:17:30.531Z,37.34
2017-06-05T12:18:40.131Z,37.34
2017-06-05T12:19:50.688Z,37.15
2017-06-05T12:21:00.286Z,37.44
2017-06-05T12:22:09.912Z,37.44
2017-06-05T12:23:20.155Z,37.15
2017-06-05T12:24:29.763Z,36.96
2017-06-05T12:25:39.691Z,37.05
2017-06-05T12:26:49.608Z,37.34
2017-06-05T12:27:58.903Z,37.15
2017-06-05T12:29:08.190Z,37.05
2017-06-05T12:30:17.483Z,37.05
2017-06-05T12:31:27.243Z,36.96
2017-06-05T12:32:37.449Z,36.96
2017-06-05T12:33:47.048Z,36.86
2017-06-05T12:34:56.651Z,36.86
2017-06-05T12:36:06.274Z,36.66
2017-06-05T12:37:16.231Z,36.76
2017-06-05T12:38:25.819Z,36.76
2017-06-05T12:39:36.050Z,36.96
2017-06-05T12:40:45.948Z,37.05
2017-06-05T12:41:55.845Z,36.76
2017-06-05T12:43:05.901Z,36.86
2017-06-05T12:44:15.823Z,36.86
2017-06-05T12:45:25.736Z,36.76
2017-06-05T12:46:35.034Z,36.76
2017-06-05T12:47:44.637Z,36.76
2017-06-05T12:48:55.199Z,36.47
2017-06-05T12:50:05.099Z,36.38
2017-06-05T12:51:14.712Z,36.38
2017-06-05T12:52:24.923Z,36.47
2017-06-05T12:53:35.136Z,36.47
2017-06-05T12:54:45.204Z,36.38
2017-06-05T12:55:55.145Z,36.28
2017-06-05T12:57:05.054Z,36.18
2017-06-05T12:58:14.957Z,36.08
2017-06-05T12:59:24.576Z,36.08
2017-06-05T13:00:34.784Z,36.08
2017-06-05T13:01:45.033Z,35.99
2017-06-05T13:02:54.940Z,35.89
2017-06-05T13:04:04.534Z,35.99
2017-06-05T13:05:14.748Z,35.99
2017-06-05T13:06:24.505Z,35.89
2017-06-05T13:07:34.415Z,35.89
2017-06-05T13:08:44.641Z,35.8
2017-06-05T13:09:54.550Z,35.89
2017-06-05T13:11:04.463Z,35.99
2017-06-05T13:12:14.472Z,35.89
2017-06-05T13:13:24.376Z,35.8
2017-06-05T13:14:33.989Z,35.89
2017-06-05T13:15:43.587Z,35.99
2017-06-05T13:16:53.803Z,35.6
2017-06-05T13:18:04.081Z,35.62
2017-06-05T13:19:14.038Z,35.72
2017-06-05T13:20:23.337Z,35.33
2017-06-05T13:21:33.245Z,35.42
2017-06-05T13:22:42.867Z,35.33
2017-06-05T13:23:53.154Z,35.33
2017-06-05T13:25:02.436Z,35.33
2017-06-05T13:26:12.348Z,35.23
2017-06-05T13:27:22.257Z,35.33
2017-06-05T13:28:31.547Z,35.23
2017-06-05T13:29:41.878Z,35.23
2017-06-05T13:30:51.488Z,35.13
2017-06-05T13:32:01.709Z,35.33
2017-06-05T13:33:11.637Z,35.23
2017-06-05T13:34:20.930Z,35.23
2017-06-05T13:35:30.982Z,35.23
2017-06-05T13:36:40.588Z,35.23
2017-06-05T13:37:50.518Z,35.23
2017-06-05T13:39:00.122Z,35.23
2017-06-05T13:40:09.718Z,35.33
2017-06-05T13:41:19.408Z,35.13
2017-06-05T13:42:29.003Z,34.84
2017-06-05T13:43:38.909Z,34.94
2017-06-05T13:44:48.818Z,34.75
2017-06-05T13:45:58.433Z,34.45
2017-06-05T13:47:08.507Z,34.65
2017-06-05T13:48:18.134Z,34.38
2017-06-05T13:49:28.054Z,34.38
2017-06-05T13:50:38.660Z,34.67
2017-06-05T13:51:48.882Z,34.38
2017-06-05T13:52:59.244Z,34.47
2017-06-05T13:54:08.850Z,34.28
2017-06-05T13:55:19.055Z,34.57
2017-06-05T13:56:28.969Z,34.28
2017-06-05T13:57:39.187Z,34.28
2017-06-05T13:58:49.544Z,34.38
2017-06-05T13:59:59.760Z,34.28
2017-06-05T14:01:09.674Z,34.38
2017-06-05T14:02:19.588Z,34.57
2017-06-05T14:03:29.807Z,34.47
2017-06-05T14:04:40.064Z,34.47
2017-06-05T14:05:50.271Z,34.28
2017-06-05T14:07:00.491Z,34.86
2017-06-05T14:08:10.104Z,34.77
2017-06-05T14:09:19.410Z,34.86
2017-06-05T14:10:29.419Z,34.77
2017-06-05T14:11:38.730Z,34.77
2017-06-05T14:12:48.031Z,34.57
2017-06-05T14:13:57.629Z,34.67
2017-06-05T14:15:06.631Z,34.57
2017-06-05T14:16:16.562Z,34.86
2017-06-05T14:17:26.484Z,34.57
2017-06-05T14:18:35.788Z,34.96
2017-06-05T14:19:45.115Z,34.47
2017-06-05T14:20:55.402Z,34.47
2017-06-05T14:22:05.047Z,34.67
2017-06-05T14:23:14.952Z,34.77
2017-06-05T14:24:24.861Z,34.28
2017-06-05T14:25:35.067Z,34.28
2017-06-05T14:26:44.675Z,34.57
2017-06-05T14:27:54.922Z,34.77
2017-06-05T14:29:04.840Z,34.28
2017-06-05T14:30:14.144Z,34.57
2017-06-05T14:31:24.354Z,34.77
2017-06-05T14:32:33.677Z,34.28
2017-06-05T14:33:43.630Z,34.38
2017-06-05T14:34:53.534Z,34.67
2017-06-05T14:36:03.437Z,34.77
2017-06-05T14:37:13.040Z,34.28
2017-06-05T14:38:22.974Z,34.38
2017-06-05T14:39:32.878Z,34.57
2017-06-05T14:40:43.134Z,34.47
2017-06-05T14:41:53.043Z,34.67
2017-06-05T14:43:03.010Z,34.67
2017-06-05T14:44:13.234Z,34.67
2017-06-05T14:45:23.254Z,34.47
2017-06-05T14:46:33.211Z,34.19
2017-06-05T14:47:43.446Z,34.67
2017-06-05T14:48:53.672Z,34.38
2017-06-05T14:50:02.990Z,34.47
2017-06-05T14:51:13.050Z,34.38
2017-06-05T14:52:22.657Z,34.09
2017-06-05T14:53:32.566Z,34.38
2017-06-05T14:54:42.216Z,34.38
2017-06-05T14:55:52.713Z,34.38
2017-06-05T14:57:02.454Z,34.47
2017-06-05T14:58:12.072Z,34.28
2017-06-05T14:59:22.289Z,34.28
2017-06-05T15:00:32.209Z,34.38
2017-06-05T15:01:42.131Z,34.57
2017-06-05T15:02:52.129Z,34.09
2017-06-05T15:04:02.054Z,34.28